createdAt,value
2018-07-26T00:01:02.600Z,99.90
2018-07-26T00:03:31.979Z,99.90
2018-07-26T00:06:01.590Z,99.90
2018-07-26T00:08:30.946Z,99.90
2018-07-26T00:11:00.396Z,99.90
2018-07-26T00:13:30.484Z,99.90
2018-07-26T00:18:29.137Z,99.90
2018-07-26T00:20:58.528Z,99.90
2018-07-26T00:23:27.904Z,99.90
2018-07-26T00:25:57.289Z,99.90
2018-07-26T00:28:26.686Z,99.90
2018-07-26T00:30:56.077Z,99.90
2018-07-26T00:33:25.428Z,99.90
2018-07-26T00:35:55.139Z,99.90
2018-07-26T00:38:24.531Z,99.90
2018-07-26T00:40:53.909Z,99.90
2018-07-26T00:43:23.293Z,99.90
2018-07-26T00:45:52.683Z,99.90
2018-07-26T00:48:22.047Z,99.90
2018-07-26T00:50:51.413Z,99.90
2018-07-26T00:53:20.783Z,99.90
2018-07-26T00:55:50.160Z,99.90
2018-07-26T00:58:19.535Z,99.90
2018-07-26T01:00:48.907Z,99.90
2018-07-26T01:03:18.308Z,99.90
2018-07-26T01:05:48.188Z,99.90
2018-07-26T01:13:15.363Z,99.90
2018-07-26T01:15:45.065Z,99.90
2018-07-26T01:18:14.430Z,99.90
2018-07-26T01:20:43.795Z,99.90
2018-07-26T01:25:43.204Z,99.90
2018-07-26T01:28:12.523Z,99.90
2018-07-26T01:30:41.917Z,99.90
2018-07-26T01:33:11.265Z,99.90
2018-07-26T01:35:40.650Z,99.90
2018-07-26T01:38:10.043Z,99.90
2018-07-26T01:40:39.540Z,99.90
2018-07-26T01:43:24.933Z,99.90
2018-07-26T01:45:54.334Z,99.90
2018-07-26T01:48:23.631Z,99.90
2018-07-26T01:50:52.975Z,99.90
2018-07-26T01:55:51.344Z,99.90
2018-07-26T01:58:20.713Z,99.90
2018-07-26T02:00:50.059Z,99.90
2018-07-26T02:03:19.530Z,99.90
2018-07-26T02:07:13.270Z,99.90
2018-07-26T02:09:42.636Z,99.90
2018-07-26T02:12:12.003Z,99.90
2018-07-26T02:14:41.435Z,99.90
2018-07-26T02:19:39.691Z,99.90
2018-07-26T02:22:09.075Z,99.90
2018-07-26T02:24:38.424Z,99.90
2018-07-26T02:27:07.821Z,99.90
2018-07-26T02:29:37.217Z,99.90
2018-07-26T02:34:35.472Z,99.90
2018-07-26T02:37:05.237Z,99.90
2018-07-26T02:39:34.588Z,99.90
2018-07-26T02:42:04.007Z,99.90
2018-07-26T02:44:33.440Z,99.90
2018-07-26T02:47:02.808Z,99.90
2018-07-26T02:49:32.142Z,99.90
2018-07-26T02:52:01.497Z,99.90
2018-07-26T02:54:30.851Z,99.90
2018-07-26T02:57:00.171Z,99.90
2018-07-26T02:59:29.545Z,99.90
2018-07-26T03:01:58.883Z,99.90
2018-07-26T03:04:28.258Z,99.90
2018-07-26T03:06:57.609Z,99.90
2018-07-26T03:09:26.997Z,99.90
2018-07-26T03:11:56.331Z,99.90
2018-07-26T03:14:25.753Z,99.90
2018-07-26T03:16:55.067Z,99.90
2018-07-26T03:19:24.475Z,99.90
2018-07-26T03:21:53.834Z,99.90
2018-07-26T03:24:23.171Z,99.90
2018-07-26T03:26:52.516Z,99.90
2018-07-26T03:29:22.045Z,99.90
2018-07-26T03:31:51.391Z,99.90
2018-07-26T03:34:20.740Z,99.90
2018-07-26T03:36:50.063Z,99.90
2018-07-26T03:39:19.368Z,99.90
2018-07-26T03:41:48.722Z,99.90
2018-07-26T03:44:18.062Z,99.90
2018-07-26T03:46:47.431Z,99.90
2018-07-26T03:49:16.751Z,99.90
2018-07-26T03:51:58.826Z,99.90
2018-07-26T03:54:28.152Z,99.90
2018-07-26T03:56:57.533Z,99.90
2018-07-26T03:59:27.004Z,99.90
2018-07-26T04:01:56.371Z,99.90
2018-07-26T04:04:25.693Z,99.90
2018-07-26T04:06:55.095Z,99.90
2018-07-26T04:09:24.451Z,99.90
2018-07-26T04:12:00.229Z,99.90
2018-07-26T04:14:29.583Z,99.90
2018-07-26T04:16:58.938Z,99.90
2018-07-26T04:19:28.288Z,99.90
2018-07-26T04:21:57.653Z,99.90
2018-07-26T04:24:26.961Z,99.90
2018-07-26T04:26:56.337Z,99.90
2018-07-26T04:29:25.713Z,99.90
2018-07-26T04:31:55.459Z,99.90
2018-07-26T04:34:24.771Z,99.90
2018-07-26T04:36:54.130Z,99.90
2018-07-26T04:39:23.497Z,99.90
2018-07-26T04:44:21.682Z,99.90
2018-07-26T04:46:51.052Z,99.90
2018-07-26T04:49:20.423Z,99.90
2018-07-26T04:51:49.804Z,99.90
2018-07-26T04:54:19.187Z,99.90
2018-07-26T04:56:48.595Z,99.90
2018-07-26T04:59:18.084Z,99.90
2018-07-26T05:01:47.448Z,99.90
2018-07-26T05:04:16.794Z,99.90
2018-07-26T05:09:15.092Z,99.90
2018-07-26T05:11:44.882Z,99.90
2018-07-26T05:14:14.291Z,99.90
2018-07-26T05:16:50.178Z,99.90
2018-07-26T05:19:19.617Z,99.90
2018-07-26T05:21:48.943Z,99.90
2018-07-26T05:24:18.284Z,99.90
2018-07-26T05:29:16.485Z,99.90
2018-07-26T05:31:45.930Z,99.90
2018-07-26T05:34:15.267Z,99.90
2018-07-26T05:36:44.723Z,99.90
2018-07-26T05:39:14.109Z,99.90
2018-07-26T05:41:43.461Z,99.90
2018-07-26T05:44:12.826Z,99.90
2018-07-26T05:46:42.222Z,99.90
2018-07-26T05:49:11.571Z,99.90
2018-07-26T05:51:41.457Z,99.90
2018-07-26T05:54:10.808Z,99.90
2018-07-26T05:56:40.445Z,99.90
2018-07-26T05:59:09.812Z,99.90
2018-07-26T06:01:39.611Z,99.90
2018-07-26T06:04:08.963Z,99.90
2018-07-26T06:06:38.367Z,99.90
2018-07-26T06:09:09.597Z,99.90
2018-07-26T06:11:39.019Z,99.90
2018-07-26T06:14:08.484Z,99.90
2018-07-26T06:16:37.889Z,99.90
2018-07-26T06:19:07.256Z,99.90
2018-07-26T06:21:36.591Z,99.90
2018-07-26T06:24:05.987Z,99.90
2018-07-26T06:26:35.359Z,99.90
2018-07-26T06:29:04.744Z,99.90
2018-07-26T06:31:34.116Z,99.90
2018-07-26T06:34:03.474Z,99.90
2018-07-26T06:36:32.868Z,99.90
2018-07-26T06:39:02.223Z,99.90
2018-07-26T06:41:31.592Z,99.90
2018-07-26T06:44:01.193Z,99.90
2018-07-26T06:46:30.609Z,99.90
2018-07-26T06:48:59.935Z,99.90
2018-07-26T06:51:29.400Z,99.90
2018-07-26T06:53:58.736Z,99.90
2018-07-26T06:58:56.999Z,99.90
2018-07-26T07:01:26.370Z,99.90
2018-07-26T07:03:55.688Z,99.90
2018-07-26T07:06:25.265Z,99.90
2018-07-26T07:08:54.616Z,99.90
2018-07-26T07:11:24.043Z,99.90
2018-07-26T07:13:53.365Z,99.90
2018-07-26T07:21:20.564Z,99.90
2018-07-26T07:23:49.927Z,99.90
2018-07-26T07:28:49.090Z,99.90
2018-07-26T07:31:18.596Z,99.90
2018-07-26T07:33:47.959Z,99.90
2018-07-26T07:36:17.402Z,99.90
2018-07-26T07:38:46.744Z,99.90
2018-07-26T07:41:16.120Z,99.90
2018-07-26T07:43:45.463Z,99.90
2018-07-26T07:46:14.852Z,99.90
2018-07-26T07:51:13.117Z,99.90
2018-07-26T07:53:42.483Z,99.50
2018-07-26T07:56:11.886Z,98.50
2018-07-26T07:58:41.237Z,98.00
2018-07-26T08:01:10.631Z,97.20
2018-07-26T08:06:08.897Z,99.20
2018-07-26T08:08:38.248Z,98.70
2018-07-26T08:11:07.692Z,96.90
2018-07-26T08:13:37.054Z,96.70
2018-07-26T08:16:06.500Z,97.00
2018-07-26T08:18:35.926Z,95.30
2018-07-26T08:21:05.291Z,95.90
2018-07-26T08:23:34.683Z,96.30
2018-07-26T08:26:04.294Z,94.30
2018-07-26T08:28:33.655Z,93.80
2018-07-26T08:31:03.049Z,93.70
2018-07-26T08:33:32.440Z,92.90
2018-07-26T08:36:02.147Z,90.70
2018-07-26T08:38:31.531Z,91.30
2018-07-26T08:43:29.864Z,88.10
2018-07-26T08:45:59.260Z,88.80
2018-07-26T08:48:28.628Z,87.60
2018-07-26T08:50:57.967Z,87.20
2018-07-26T08:53:27.332Z,87.70
2018-07-26T08:55:56.659Z,86.40
2018-07-26T08:58:26.003Z,85.10
2018-07-26T09:00:55.351Z,85.40
2018-07-26T09:03:24.702Z,83.70
2018-07-26T09:10:51.978Z,82.90
2018-07-26T09:13:21.352Z,81.00
2018-07-26T09:15:50.720Z,81.20
2018-07-26T09:18:20.051Z,79.50
2018-07-26T09:20:49.580Z,77.10
2018-07-26T09:23:18.979Z,76.40
2018-07-26T09:25:48.278Z,75.40
2018-07-26T09:28:17.639Z,72.60
2018-07-26T09:30:46.979Z,67.40
2018-07-26T09:33:16.394Z,68.10
2018-07-26T09:35:45.747Z,64.90
2018-07-26T09:38:15.087Z,66.80
2018-07-26T09:40:44.403Z,64.40
2018-07-26T09:43:13.757Z,63.90
2018-07-26T09:50:40.836Z,63.80
2018-07-26T09:53:10.187Z,61.20
2018-07-26T09:55:39.567Z,61.80
2018-07-26T09:58:08.943Z,58.10
2018-07-26T10:00:43.603Z,56.30
2018-07-26T10:03:12.971Z,57.00
2018-07-26T10:05:42.356Z,56.80
2018-07-26T10:08:11.696Z,55.80
2018-07-26T10:10:41.112Z,56.50
2018-07-26T10:13:10.497Z,56.00
2018-07-26T10:15:39.830Z,54.10
2018-07-26T10:18:09.177Z,54.50
2018-07-26T10:20:38.625Z,54.50
2018-07-26T10:23:08.007Z,52.80
2018-07-26T10:25:37.696Z,52.30
2018-07-26T10:28:07.132Z,52.40
2018-07-26T10:30:36.583Z,50.30
2018-07-26T10:33:06.272Z,54.70
2018-07-26T10:38:04.600Z,58.40
2018-07-26T10:40:33.982Z,58.70
2018-07-26T10:43:03.358Z,57.10
2018-07-26T10:45:32.729Z,56.70
2018-07-26T10:48:02.079Z,55.90
2018-07-26T10:50:31.445Z,54.80
2018-07-26T10:53:01.152Z,53.10
2018-07-26T10:55:30.508Z,53.00
2018-07-26T10:58:00.132Z,50.60
2018-07-26T11:00:29.553Z,52.90
2018-07-26T11:05:27.851Z,51.40
2018-07-26T11:07:57.235Z,51.30
2018-07-26T11:10:26.596Z,52.30
2018-07-26T11:12:55.936Z,51.00
2018-07-26T11:15:35.803Z,51.70
2018-07-26T11:18:05.312Z,46.30
2018-07-26T11:20:35.181Z,47.10
2018-07-26T11:28:02.462Z,49.80
2018-07-26T11:30:31.818Z,50.10
2018-07-26T11:33:01.190Z,51.10
2018-07-26T11:35:30.879Z,51.30
2018-07-26T11:38:00.289Z,50.00
2018-07-26T11:42:58.543Z,47.10
2018-07-26T11:45:27.927Z,48.00
2018-07-26T11:47:57.283Z,47.60
2018-07-26T11:50:26.686Z,47.10
2018-07-26T11:52:56.017Z,45.60
2018-07-26T11:55:25.387Z,45.30
2018-07-26T11:57:54.703Z,45.20
2018-07-26T12:00:24.060Z,45.30
2018-07-26T12:02:53.388Z,45.10
2018-07-26T12:05:22.746Z,43.90
2018-07-26T12:07:52.076Z,44.30
2018-07-26T12:10:21.482Z,44.50
2018-07-26T12:12:50.841Z,43.40
2018-07-26T12:15:20.228Z,43.90
2018-07-26T12:17:49.625Z,43.90
2018-07-26T12:20:19.020Z,44.20
2018-07-26T12:22:48.397Z,41.70
2018-07-26T12:25:17.779Z,43.70
2018-07-26T12:30:16.047Z,45.20
2018-07-26T12:32:45.419Z,44.00
2018-07-26T12:35:15.009Z,46.20
2018-07-26T12:40:13.295Z,43.80
2018-07-26T12:42:42.658Z,41.80
2018-07-26T12:45:12.098Z,42.20
2018-07-26T12:47:41.499Z,44.00
2018-07-26T12:50:10.869Z,42.50
2018-07-26T12:52:41.959Z,42.90
2018-07-26T12:55:11.540Z,41.70
2018-07-26T13:00:09.787Z,41.80
2018-07-26T13:02:39.153Z,41.60
2018-07-26T13:05:08.539Z,42.00
2018-07-26T13:10:08.714Z,42.10
2018-07-26T13:12:38.371Z,43.10
2018-07-26T13:15:10.330Z,43.30
2018-07-26T13:17:40.132Z,43.70
2018-07-26T13:22:39.255Z,44.60
2018-07-26T13:25:08.720Z,44.20
2018-07-26T13:27:38.073Z,44.10
2018-07-26T13:30:07.484Z,43.20
2018-07-26T13:32:36.897Z,44.00
2018-07-26T13:35:06.303Z,42.40
2018-07-26T13:37:35.676Z,42.20
2018-07-26T13:40:05.140Z,41.10
2018-07-26T13:42:34.487Z,42.30
2018-07-26T13:45:03.843Z,42.50
2018-07-26T13:47:33.259Z,44.30
2018-07-26T13:50:02.624Z,43.10
2018-07-26T13:52:32.043Z,44.30
2018-07-26T13:55:01.440Z,44.30
2018-07-26T13:57:30.845Z,44.90
2018-07-26T14:00:00.224Z,44.60
2018-07-26T14:02:29.562Z,44.60
2018-07-26T14:04:58.942Z,44.70
2018-07-26T14:07:28.279Z,43.90
2018-07-26T14:09:57.721Z,43.30
2018-07-26T14:12:27.091Z,44.50
2018-07-26T14:14:57.363Z,43.30
2018-07-26T14:17:26.712Z,44.20
2018-07-26T14:19:56.103Z,44.30
2018-07-26T14:22:25.508Z,43.10
2018-07-26T14:24:59.019Z,43.30
2018-07-26T14:27:28.957Z,44.20
2018-07-26T14:29:58.915Z,44.50
2018-07-26T14:32:28.283Z,43.50
2018-07-26T14:34:57.659Z,44.30
2018-07-26T14:37:27.023Z,44.40
2018-07-26T14:39:56.411Z,43.70
2018-07-26T14:47:23.608Z,45.00
2018-07-26T14:49:52.970Z,44.70
2018-07-26T14:52:22.300Z,45.10
2018-07-26T14:57:20.563Z,44.60
2018-07-26T14:59:49.959Z,44.40
2018-07-26T15:02:19.319Z,44.60
2018-07-26T15:04:48.664Z,43.90
2018-07-26T15:07:18.049Z,44.50
2018-07-26T15:09:47.437Z,43.00
2018-07-26T15:12:16.835Z,43.50
2018-07-26T15:14:46.283Z,42.60
2018-07-26T15:24:42.305Z,43.60
2018-07-26T15:27:11.688Z,43.60
2018-07-26T15:29:41.030Z,44.40
2018-07-26T15:32:10.393Z,44.40
2018-07-26T15:34:39.760Z,43.40
2018-07-26T15:37:09.140Z,44.30
2018-07-26T15:39:38.880Z,45.50
2018-07-26T15:44:37.198Z,45.70
2018-07-26T15:47:06.556Z,45.40
2018-07-26T15:54:33.708Z,45.80
2018-07-26T15:57:03.093Z,46.10
2018-07-26T15:59:32.499Z,45.10
2018-07-26T16:02:01.888Z,44.80
2018-07-26T16:04:31.252Z,44.50
2018-07-26T16:07:00.626Z,44.40
2018-07-26T16:09:30.045Z,44.10
2018-07-26T16:11:59.424Z,43.50
2018-07-26T16:14:28.752Z,44.00
2018-07-26T16:19:26.934Z,44.50
2018-07-26T16:21:56.420Z,44.60
2018-07-26T16:24:25.781Z,44.20
2018-07-26T16:26:55.172Z,44.30
2018-07-26T16:29:24.524Z,44.40
2018-07-26T16:34:22.829Z,45.60
2018-07-26T16:36:52.210Z,44.90
2018-07-26T16:39:21.530Z,46.40
2018-07-26T16:41:50.863Z,46.50
2018-07-26T16:44:20.167Z,45.70
2018-07-26T16:46:49.533Z,45.30
2018-07-26T16:51:47.739Z,45.90
2018-07-26T16:54:17.042Z,45.40
2018-07-26T16:56:46.503Z,45.60
2018-07-26T16:59:15.800Z,45.70
2018-07-26T17:01:45.143Z,45.70
2018-07-26T17:04:14.472Z,45.60
2018-07-26T17:06:43.866Z,45.70
2018-07-26T17:09:13.191Z,46.00
2018-07-26T17:11:42.624Z,45.90
2018-07-26T17:14:11.943Z,45.40
2018-07-26T17:16:41.479Z,45.80
2018-07-26T17:19:10.935Z,45.90
2018-07-26T17:21:40.670Z,46.70
2018-07-26T17:24:09.991Z,46.00
2018-07-26T17:26:39.363Z,45.70
2018-07-26T17:29:08.741Z,45.90
2018-07-26T17:31:38.065Z,45.70
2018-07-26T17:34:07.380Z,45.80
2018-07-26T17:36:36.727Z,45.30
2018-07-26T17:39:07.927Z,45.70
2018-07-26T17:41:37.347Z,45.80
2018-07-26T17:44:06.873Z,46.40
2018-07-26T17:49:05.166Z,46.70
2018-07-26T17:51:34.552Z,46.60
2018-07-26T17:54:03.871Z,46.30
2018-07-26T17:59:02.160Z,46.30
2018-07-26T18:01:31.484Z,46.70
2018-07-26T18:04:00.835Z,46.90
2018-07-26T18:06:30.160Z,47.40
2018-07-26T18:11:28.390Z,47.90
2018-07-26T18:13:57.826Z,47.80
2018-07-26T18:18:56.004Z,48.80
2018-07-26T18:21:25.361Z,49.00
2018-07-26T18:23:54.703Z,49.10
2018-07-26T18:26:24.043Z,49.40
2018-07-26T18:28:53.377Z,49.40
2018-07-26T18:31:22.764Z,49.60
2018-07-26T18:33:52.450Z,49.90
2018-07-26T18:36:21.904Z,49.90
2018-07-26T18:38:51.259Z,50.50
2018-07-26T18:41:20.598Z,50.50
2018-07-26T18:43:50.005Z,50.80
2018-07-26T18:46:19.296Z,51.00
2018-07-26T18:48:48.920Z,51.00
2018-07-26T18:53:47.235Z,51.60
2018-07-26T18:56:16.558Z,51.90
2018-07-26T18:58:45.909Z,51.70
2018-07-26T19:01:15.251Z,52.10
2018-07-26T19:03:44.630Z,52.30
2018-07-26T19:06:13.934Z,52.20
2018-07-26T19:08:43.350Z,52.10
2018-07-26T19:16:10.451Z,52.80
2018-07-26T19:18:39.798Z,52.70
2018-07-26T19:21:09.176Z,53.20
2018-07-26T19:23:38.599Z,53.40
2018-07-26T19:26:08.046Z,53.60
2018-07-26T19:28:37.724Z,53.70
2018-07-26T19:31:07.076Z,53.80
2018-07-26T19:33:36.471Z,54.30
2018-07-26T19:36:06.097Z,53.90
2018-07-26T19:38:35.435Z,54.00
2018-07-26T19:41:04.808Z,53.60
2018-07-26T19:43:34.131Z,53.90
2018-07-26T19:46:03.544Z,54.30
2018-07-26T19:53:30.739Z,54.30
2018-07-26T19:56:00.074Z,54.50
2018-07-26T19:58:29.436Z,55.30
2018-07-26T20:00:58.774Z,55.90
2018-07-26T20:05:57.008Z,55.70
2018-07-26T20:08:26.357Z,55.80
2018-07-26T20:10:55.725Z,55.70
2018-07-26T20:13:25.084Z,55.80
2018-07-26T20:15:54.407Z,55.90
2018-07-26T20:18:23.788Z,56.10
2018-07-26T20:23:22.023Z,57.00
2018-07-26T20:25:51.647Z,59.30
2018-07-26T20:28:21.251Z,58.40
2018-07-26T20:30:50.565Z,57.90
2018-07-26T20:33:19.911Z,57.40
2018-07-26T20:35:49.251Z,56.60
2018-07-26T20:38:18.693Z,57.00
2018-07-26T20:40:48.144Z,57.30
2018-07-26T20:43:17.495Z,57.30
2018-07-26T20:45:46.814Z,57.20
2018-07-26T20:48:16.212Z,57.20
2018-07-26T20:50:45.600Z,57.40
2018-07-26T20:53:14.982Z,57.80
2018-07-26T20:55:45.232Z,56.60
2018-07-26T20:58:14.749Z,57.30
2018-07-26T21:00:44.111Z,57.60
2018-07-26T21:03:13.515Z,57.10
2018-07-26T21:05:42.927Z,57.50
2018-07-26T21:08:12.288Z,58.00
2018-07-26T21:10:41.784Z,57.50
2018-07-26T21:13:11.108Z,57.90
2018-07-26T21:15:40.467Z,58.00
2018-07-26T21:20:38.762Z,57.80
2018-07-26T21:23:08.121Z,57.90
2018-07-26T21:30:36.207Z,58.10
2018-07-26T21:33:05.705Z,58.20
2018-07-26T21:35:35.073Z,58.40
2018-07-26T21:38:04.426Z,58.70
2018-07-26T21:43:02.767Z,58.90
2018-07-26T21:45:32.152Z,58.60
2018-07-26T21:48:01.739Z,59.10
2018-07-26T21:53:00.028Z,59.10
2018-07-26T21:55:29.469Z,59.60
2018-07-26T21:57:58.740Z,59.70
2018-07-26T22:05:36.936Z,60.20
2018-07-26T22:08:06.435Z,60.20
2018-07-26T22:13:04.783Z,60.50
2018-07-26T22:15:34.936Z,60.70
2018-07-26T22:18:04.300Z,61.30
2018-07-26T22:20:33.704Z,61.40
2018-07-26T22:23:03.490Z,61.10
2018-07-26T22:25:32.985Z,61.80
2018-07-26T22:28:02.308Z,62.20
2018-07-26T22:30:31.741Z,62.30
2018-07-26T22:33:01.089Z,63.50
2018-07-26T22:35:30.466Z,63.30
2018-07-26T22:40:28.796Z,64.20
2018-07-26T22:42:58.151Z,64.80
2018-07-26T22:45:27.542Z,65.60
2018-07-26T22:47:57.133Z,66.40
2018-07-26T22:50:26.524Z,67.30
2018-07-26T22:52:55.895Z,68.20
2018-07-26T22:55:25.271Z,69.10
2018-07-26T22:57:54.637Z,70.50
2018-07-26T23:00:24.023Z,71.40
2018-07-26T23:02:53.424Z,72.40
2018-07-26T23:05:22.792Z,73.60
2018-07-26T23:07:52.253Z,74.40
2018-07-26T23:10:21.890Z,75.10
2018-07-26T23:12:51.288Z,75.70
2018-07-26T23:17:49.607Z,76.40
2018-07-26T23:20:18.973Z,77.00
2018-07-26T23:22:52.151Z,77.70
2018-07-26T23:27:50.495Z,79.20
2018-07-26T23:30:19.850Z,80.10
2018-07-26T23:35:18.109Z,81.10
2018-07-26T23:37:47.479Z,82.90
2018-07-26T23:40:18.239Z,83.20
2018-07-26T23:42:49.131Z,83.80
2018-07-26T23:45:19.857Z,84.70
2018-07-26T23:47:50.076Z,86.00
2018-07-26T23:50:19.738Z,86.30
2018-07-26T23:52:49.127Z,86.70
2018-07-26T23:55:18.489Z,87.30
2018-07-26T23:57:47.819Z,88.70
